createdAt,value
2023-03-30T00:01:12.222Z,2.97
2023-03-30T00:03:40.008Z,3.08
2023-03-30T00:06:09.366Z,2.95
2023-03-30T00:08:37.371Z,3.28
2023-03-30T00:11:10.470Z,2.45
2023-03-30T00:13:41.228Z,2.83
2023-03-30T00:16:11.482Z,2.47
2023-03-30T00:18:39.710Z,2.97
2023-03-30T00:21:09.581Z,2.40
2023-03-30T00:23:36.982Z,3.92
2023-03-30T00:26:04.324Z,3.40
2023-03-30T00:28:31.797Z,2.70
2023-03-30T00:30:59.233Z,2.30
2023-03-30T00:33:41.431Z,2.45
2023-03-30T00:36:11.754Z,3.03
2023-03-30T00:38:38.773Z,2.97
2023-03-30T00:41:07.288Z,2.80
2023-03-30T00:43:34.551Z,2.67
2023-03-30T00:46:01.876Z,2.95
2023-03-30T00:48:37.443Z,3.00
2023-03-30T00:51:10.629Z,3.10
2023-03-30T00:53:43.808Z,3.53
2023-03-30T00:56:14.089Z,3.13
2023-03-30T00:58:43.640Z,3.67
2023-03-30T01:01:15.125Z,3.38
2023-03-30T01:03:48.440Z,3.17
2023-03-30T01:06:24.586Z,3.75
2023-03-30T01:08:53.374Z,3.13
2023-03-30T01:11:21.690Z,2.85
2023-03-30T01:13:54.672Z,2.28
2023-03-30T01:16:42.144Z,2.58
2023-03-30T01:19:24.103Z,2.88
2023-03-30T01:22:18.844Z,2.83
2023-03-30T01:25:18.614Z,2.97
2023-03-30T01:28:04.609Z,2.70
2023-03-30T01:31:01.927Z,3.08
2023-03-30T01:33:56.994Z,3.50
2023-03-30T01:36:35.789Z,3.60
2023-03-30T01:39:13.028Z,2.90
2023-03-30T01:42:00.729Z,2.63
2023-03-30T01:44:51.884Z,3.00
2023-03-30T01:47:37.906Z,3.35
2023-03-30T01:50:29.873Z,4.00
2023-03-30T01:53:15.012Z,2.90
2023-03-30T01:56:09.533Z,2.58
2023-03-30T01:58:52.584Z,2.58
2023-03-30T02:01:20.921Z,3.22
2023-03-30T02:03:53.714Z,3.53
2023-03-30T02:06:27.125Z,2.67
2023-03-30T02:08:56.960Z,2.78
2023-03-30T02:11:26.685Z,3.20
2023-03-30T02:13:55.355Z,3.72
2023-03-30T02:16:29.389Z,2.47
2023-03-30T02:18:57.865Z,3.55
2023-03-30T02:21:25.954Z,3.80
2023-03-30T02:23:55.020Z,3.45
2023-03-30T02:26:23.027Z,3.08
2023-03-30T02:28:50.858Z,3.10
2023-03-30T02:31:17.859Z,3.08
2023-03-30T02:34:17.470Z,3.47
2023-03-30T02:37:03.559Z,3.00
2023-03-30T02:39:36.748Z,3.92
2023-03-30T02:42:24.540Z,2.75
2023-03-30T02:45:03.099Z,3.72
2023-03-30T02:47:45.215Z,2.80
2023-03-30T02:50:24.691Z,3.33
2023-03-30T02:52:52.518Z,3.95
2023-03-30T02:55:30.410Z,2.58
2023-03-30T02:58:03.287Z,2.60
2023-03-30T03:01:06.165Z,3.38
2023-03-30T03:03:38.551Z,3.97
2023-03-30T03:06:09.467Z,3.00
2023-03-30T03:08:39.902Z,3.15
2023-03-30T03:11:08.207Z,2.85
2023-03-30T03:13:39.845Z,3.08
2023-03-30T03:16:11.187Z,3.15
2023-03-30T03:18:42.730Z,3.42
2023-03-30T03:21:10.765Z,4.80
2023-03-30T03:23:37.957Z,3.65
2023-03-30T03:26:05.999Z,3.13
2023-03-30T03:28:33.057Z,3.63
2023-03-30T03:31:00.357Z,3.58
2023-03-30T03:33:28.094Z,3.55
2023-03-30T03:35:55.486Z,3.20
2023-03-30T03:38:23.864Z,3.33
2023-03-30T03:40:52.560Z,3.20
2023-03-30T03:43:19.989Z,5.18
2023-03-30T03:45:48.118Z,3.15
2023-03-30T03:48:16.529Z,3.15
2023-03-30T03:50:44.916Z,3.60
2023-03-30T03:53:12.870Z,3.58
2023-03-30T03:55:39.907Z,3.05
2023-03-30T03:58:07.472Z,3.17
2023-03-30T04:00:34.970Z,4.25
2023-03-30T04:03:02.278Z,3.33
2023-03-30T04:05:29.899Z,4.18
2023-03-30T04:07:57.115Z,3.78
2023-03-30T04:10:25.520Z,3.10
2023-03-30T04:12:56.256Z,3.53
2023-03-30T04:15:25.004Z,3.45
2023-03-30T04:17:57.920Z,3.67
2023-03-30T04:20:26.939Z,3.42
2023-03-30T04:22:54.327Z,3.90
2023-03-30T04:25:25.889Z,3.17
2023-03-30T04:27:53.650Z,4.00
2023-03-30T04:30:22.619Z,4.78
2023-03-30T04:33:09.988Z,4.47
2023-03-30T04:35:37.011Z,3.40
2023-03-30T04:38:04.053Z,3.90
2023-03-30T04:40:31.272Z,3.95
2023-03-30T04:43:02.500Z,3.55
2023-03-30T04:45:32.330Z,3.88
2023-03-30T04:47:59.468Z,5.13
2023-03-30T04:50:27.760Z,3.72
2023-03-30T04:52:54.772Z,3.20
2023-03-30T04:55:22.059Z,4.03
2023-03-30T04:57:49.150Z,4.05
2023-03-30T05:00:18.140Z,4.20
2023-03-30T05:02:46.418Z,3.88
2023-03-30T05:05:14.106Z,3.58
2023-03-30T05:07:42.108Z,4.72
2023-03-30T05:10:10.321Z,3.97
2023-03-30T05:12:37.306Z,4.35
2023-03-30T05:15:08.150Z,3.58
2023-03-30T05:17:38.907Z,3.58
2023-03-30T05:20:10.533Z,3.63
2023-03-30T05:22:38.750Z,3.95
2023-03-30T05:25:07.467Z,3.53
2023-03-30T05:27:34.634Z,4.38
2023-03-30T05:30:02.076Z,5.13
2023-03-30T05:32:29.121Z,4.95
2023-03-30T05:34:56.834Z,4.07
2023-03-30T05:37:23.824Z,3.83
2023-03-30T05:39:50.997Z,4.28
2023-03-30T05:42:18.308Z,4.63
2023-03-30T05:44:45.520Z,4.22
2023-03-30T05:47:12.676Z,3.85
2023-03-30T05:49:39.639Z,3.63
2023-03-30T05:52:08.760Z,4.97
2023-03-30T05:54:36.034Z,4.40
2023-03-30T05:57:04.362Z,3.25
2023-03-30T05:59:31.882Z,4.35
2023-03-30T06:01:59.136Z,4.60
2023-03-30T06:04:27.877Z,3.92
2023-03-30T06:06:54.909Z,4.40
2023-03-30T06:09:24.158Z,4.57
2023-03-30T06:11:51.942Z,4.47
2023-03-30T06:14:19.623Z,4.30
2023-03-30T06:16:46.781Z,4.63
2023-03-30T06:19:14.747Z,4.30
2023-03-30T06:21:46.082Z,6.13
2023-03-30T06:24:13.676Z,4.50
2023-03-30T06:27:14.257Z,4.30
2023-03-30T06:29:47.717Z,4.95
2023-03-30T06:32:15.080Z,4.22
2023-03-30T06:34:42.505Z,4.28
2023-03-30T06:37:10.802Z,4.35
2023-03-30T06:39:38.734Z,4.15
2023-03-30T06:42:06.689Z,3.92
2023-03-30T06:44:37.358Z,4.25
2023-03-30T06:47:06.227Z,4.22
2023-03-30T06:49:38.410Z,5.50
2023-03-30T06:52:08.192Z,4.25
2023-03-30T06:54:37.919Z,4.32
2023-03-30T06:57:04.988Z,5.10
2023-03-30T06:59:41.296Z,6.45
2023-03-30T07:02:15.438Z,4.47
2023-03-30T07:04:42.539Z,4.45
2023-03-30T07:07:09.699Z,5.13
2023-03-30T07:09:36.997Z,5.88
2023-03-30T07:12:04.476Z,6.38
2023-03-30T07:14:31.533Z,4.82
2023-03-30T07:16:58.836Z,4.45
2023-03-30T07:19:26.286Z,4.90
2023-03-30T07:21:53.406Z,5.63
2023-03-30T07:24:20.611Z,4.60
2023-03-30T07:26:47.581Z,4.05
2023-03-30T07:29:15.725Z,5.50
2023-03-30T07:31:43.913Z,4.32
2023-03-30T07:34:13.441Z,5.03
2023-03-30T07:36:43.047Z,4.88
2023-03-30T07:39:15.486Z,5.65
2023-03-30T07:41:48.582Z,4.75
2023-03-30T07:44:20.996Z,4.28
2023-03-30T07:46:51.364Z,5.75
2023-03-30T07:49:21.082Z,4.72
2023-03-30T07:51:49.714Z,4.32
2023-03-30T07:54:24.173Z,4.07
2023-03-30T07:56:55.215Z,3.70
2023-03-30T07:59:25.936Z,4.65
2023-03-30T08:02:08.235Z,4.78
2023-03-30T08:04:35.753Z,3.72
2023-03-30T08:07:02.946Z,4.10
2023-03-30T08:09:30.973Z,4.53
2023-03-30T08:11:58.245Z,3.63
2023-03-30T08:14:27.574Z,5.03
2023-03-30T08:16:55.237Z,4.43
2023-03-30T08:19:24.851Z,4.00
2023-03-30T08:21:54.379Z,4.40
2023-03-30T08:24:21.763Z,4.47
2023-03-30T08:26:48.928Z,4.20
2023-03-30T08:29:17.210Z,3.78
2023-03-30T08:31:45.683Z,4.80
2023-03-30T08:34:12.931Z,3.90
2023-03-30T08:36:40.987Z,3.92
2023-03-30T08:39:11.013Z,4.22
2023-03-30T08:41:50.263Z,4.18
2023-03-30T08:44:31.322Z,3.97
2023-03-30T08:47:00.474Z,3.53
2023-03-30T08:49:28.911Z,4.07
2023-03-30T08:51:56.461Z,3.60
2023-03-30T08:54:25.976Z,3.85
2023-03-30T08:57:00.028Z,4.32
2023-03-30T08:59:44.988Z,4.50
2023-03-30T09:02:20.910Z,4.32
2023-03-30T09:05:12.651Z,4.15
2023-03-30T09:07:49.258Z,3.60
2023-03-30T09:10:17.008Z,4.72
2023-03-30T09:12:48.700Z,4.72
2023-03-30T09:15:20.499Z,4.53
2023-03-30T09:18:02.158Z,3.53
2023-03-30T09:20:32.778Z,3.55
2023-03-30T09:26:03.379Z,4.40
2023-03-30T09:28:35.168Z,3.38
2023-03-30T09:31:14.732Z,3.83
2023-03-30T09:33:50.128Z,3.25
2023-03-30T09:36:45.952Z,3.42
2023-03-30T09:39:26.316Z,3.28
2023-03-30T09:42:23.168Z,2.78
2023-03-30T09:45:11.099Z,2.22
2023-03-30T09:47:39.903Z,2.20
2023-03-30T09:50:12.249Z,2.30
2023-03-30T09:52:41.154Z,1.92
2023-03-30T09:55:26.465Z,2.33
2023-03-30T09:57:54.866Z,2.40
2023-03-30T10:00:29.602Z,2.60
2023-03-30T10:02:59.131Z,1.80
2023-03-30T10:05:27.753Z,3.05
2023-03-30T10:08:03.251Z,2.63
2023-03-30T10:10:37.603Z,2.10
2023-03-30T10:13:07.833Z,2.75
2023-03-30T10:15:39.096Z,2.40
2023-03-30T10:18:27.916Z,2.50
2023-03-30T10:21:08.179Z,2.60
2023-03-30T10:23:40.234Z,2.72
2023-03-30T10:26:17.869Z,2.63
2023-03-30T10:29:04.410Z,2.90
2023-03-30T10:31:36.510Z,3.03
2023-03-30T10:34:07.108Z,3.40
2023-03-30T10:36:41.134Z,2.90
2023-03-30T10:39:26.186Z,3.10
2023-03-30T10:41:54.693Z,4.38
2023-03-30T10:44:26.391Z,3.78
2023-03-30T10:47:02.447Z,3.30
2023-03-30T10:49:39.961Z,16.02
2023-03-30T10:52:23.343Z,8.00
2023-03-30T10:55:02.881Z,3.28
2023-03-30T10:57:55.356Z,3.08
2023-03-30T11:00:59.505Z,2.25
2023-03-30T11:03:32.668Z,2.25
2023-03-30T11:06:21.132Z,1.92
2023-03-30T11:08:51.032Z,1.85
2023-03-30T11:11:23.734Z,2.00
2023-03-30T11:13:56.058Z,1.80
2023-03-30T11:16:33.816Z,1.65
2023-03-30T11:19:11.097Z,2.20
2023-03-30T11:21:58.316Z,1.83
2023-03-30T11:24:29.819Z,2.30
2023-03-30T11:27:09.814Z,2.50
2023-03-30T11:29:54.942Z,1.80
2023-03-30T11:32:49.905Z,2.45
2023-03-30T11:35:44.396Z,2.20
2023-03-30T11:38:46.353Z,2.13
2023-03-30T11:41:29.382Z,2.72
2023-03-30T11:44:00.573Z,2.30
2023-03-30T11:46:37.334Z,2.22
2023-03-30T11:49:33.180Z,2.95
2023-03-30T11:52:33.394Z,2.45
2023-03-30T11:55:23.972Z,2.92
2023-03-30T11:58:11.349Z,2.42
2023-03-30T12:00:50.700Z,2.45
2023-03-30T12:03:43.194Z,2.55
2023-03-30T12:06:36.805Z,2.38
2023-03-30T12:09:07.454Z,2.28
2023-03-30T12:11:59.481Z,2.38
2023-03-30T12:14:43.120Z,2.70
2023-03-30T12:17:36.273Z,3.15
2023-03-30T12:20:23.646Z,2.25
2023-03-30T12:22:57.503Z,2.42
2023-03-30T12:25:48.358Z,2.20
2023-03-30T12:28:17.389Z,2.10
2023-03-30T12:31:02.762Z,2.50
2023-03-30T12:33:36.285Z,2.10
2023-03-30T12:36:23.613Z,2.30
2023-03-30T12:38:53.006Z,2.17
2023-03-30T12:41:22.216Z,2.03
2023-03-30T12:44:09.296Z,2.03
2023-03-30T12:47:24.374Z,2.10
2023-03-30T12:50:45.932Z,2.30
2023-03-30T12:53:31.252Z,2.92
2023-03-30T12:56:07.917Z,6.88
2023-03-30T12:58:59.082Z,6.60
2023-03-30T13:01:44.436Z,2.83
2023-03-30T13:04:24.288Z,2.30
2023-03-30T13:06:58.139Z,2.72
2023-03-30T13:09:29.201Z,3.15
2023-03-30T13:11:56.124Z,3.05
2023-03-30T13:14:30.464Z,2.50
2023-03-30T13:17:00.550Z,4.07
2023-03-30T13:19:33.630Z,2.63
2023-03-30T13:22:13.194Z,2.10
2023-03-30T13:24:45.173Z,3.13
2023-03-30T13:27:15.164Z,3.08
2023-03-30T13:29:48.703Z,2.80
2023-03-30T13:32:44.038Z,3.10
2023-03-30T13:35:29.879Z,3.15
2023-03-30T13:38:21.919Z,2.15
2023-03-30T13:41:07.304Z,2.80
2023-03-30T13:44:12.484Z,3.10
2023-03-30T13:46:55.149Z,2.40
2023-03-30T13:50:03.715Z,2.40
2023-03-30T13:52:41.366Z,2.33
2023-03-30T13:55:17.975Z,2.10
2023-03-30T13:57:45.050Z,2.10
2023-03-30T14:00:44.726Z,2.83
2023-03-30T14:03:27.377Z,3.28
2023-03-30T14:06:02.955Z,2.35
2023-03-30T14:08:34.641Z,6.18
2023-03-30T14:11:04.990Z,3.47
2023-03-30T14:13:32.848Z,3.50
2023-03-30T14:15:59.956Z,5.57
2023-03-30T14:18:27.758Z,4.72
2023-03-30T14:21:03.123Z,3.88
2023-03-30T14:23:45.201Z,3.75
2023-03-30T14:26:25.077Z,3.15
2023-03-30T14:28:58.006Z,2.60
2023-03-30T14:31:27.468Z,2.53
2023-03-30T14:33:56.644Z,3.20
2023-03-30T14:36:24.073Z,2.75
2023-03-30T14:38:53.870Z,2.95
2023-03-30T14:41:27.578Z,2.85
2023-03-30T14:44:04.181Z,3.75
2023-03-30T14:46:42.523Z,8.82
2023-03-30T14:49:25.644Z,12.27
2023-03-30T14:51:59.813Z,4.38
2023-03-30T14:54:27.507Z,3.47
2023-03-30T14:57:00.489Z,3.97
2023-03-30T14:59:30.722Z,3.47
2023-03-30T15:01:58.430Z,2.58
2023-03-30T15:04:32.059Z,2.80
2023-03-30T15:06:59.718Z,2.28
2023-03-30T15:09:27.324Z,2.45
2023-03-30T15:11:57.379Z,1.90
2023-03-30T15:14:24.815Z,2.38
2023-03-30T15:16:53.887Z,2.40
2023-03-30T15:19:32.871Z,2.65
2023-03-30T15:22:23.011Z,8.02
2023-03-30T15:24:51.187Z,2.88
2023-03-30T15:27:18.657Z,3.05
2023-03-30T15:29:45.757Z,2.05
2023-03-30T15:32:16.923Z,1.73
2023-03-30T15:35:08.768Z,1.63
2023-03-30T15:37:37.055Z,1.42
2023-03-30T15:40:25.358Z,1.50
2023-03-30T15:43:12.019Z,2.30
2023-03-30T15:45:39.415Z,1.42
2023-03-30T15:48:11.175Z,2.53
2023-03-30T15:50:38.308Z,2.55
2023-03-30T15:53:06.186Z,1.80
2023-03-30T15:55:33.872Z,2.08
2023-03-30T15:58:01.096Z,2.20
2023-03-30T16:00:29.653Z,2.15
2023-03-30T16:02:59.458Z,1.42
2023-03-30T16:05:29.436Z,1.77
2023-03-30T16:07:56.800Z,1.63
2023-03-30T16:10:28.022Z,1.70
2023-03-30T16:12:57.933Z,1.35
2023-03-30T16:15:31.100Z,2.00
2023-03-30T16:17:58.558Z,2.00
2023-03-30T16:20:29.110Z,2.67
2023-03-30T16:22:56.535Z,1.55
2023-03-30T16:25:41.685Z,1.67
2023-03-30T16:28:16.492Z,1.52
2023-03-30T16:30:46.416Z,1.35
2023-03-30T16:33:13.724Z,1.80
2023-03-30T16:35:40.742Z,2.40
2023-03-30T16:38:07.730Z,1.23
2023-03-30T16:40:42.978Z,2.17
2023-03-30T16:43:10.470Z,1.80
2023-03-30T16:45:37.812Z,1.33
2023-03-30T16:48:05.317Z,1.95
2023-03-30T16:50:37.605Z,1.50
2023-03-30T16:53:05.841Z,1.40
2023-03-30T16:55:33.530Z,3.25
2023-03-30T16:58:00.525Z,1.95
2023-03-30T17:00:33.457Z,1.67
2023-03-30T17:03:00.746Z,1.70
2023-03-30T17:05:27.824Z,1.35
2023-03-30T17:07:55.617Z,1.80
2023-03-30T17:10:28.488Z,1.55
2023-03-30T17:12:55.942Z,2.03
2023-03-30T17:15:24.323Z,1.77
2023-03-30T17:17:52.310Z,1.80
2023-03-30T17:20:43.006Z,1.75
2023-03-30T17:23:10.682Z,1.75
2023-03-30T17:25:40.026Z,1.67
2023-03-30T17:28:10.843Z,2.28
2023-03-30T17:30:42.396Z,1.70
2023-03-30T17:33:10.893Z,2.17
2023-03-30T17:35:38.989Z,1.70
2023-03-30T17:38:09.438Z,2.08
2023-03-30T17:40:40.055Z,2.20
2023-03-30T17:43:08.005Z,1.98
2023-03-30T17:45:36.223Z,1.75
2023-03-30T17:48:05.049Z,1.70
2023-03-30T17:50:37.784Z,1.83
2023-03-30T17:53:05.442Z,2.08
2023-03-30T17:55:33.849Z,1.67
2023-03-30T17:58:01.046Z,1.98
2023-03-30T18:00:31.946Z,2.00
2023-03-30T18:03:00.171Z,2.40
2023-03-30T18:05:31.007Z,1.63
2023-03-30T18:07:58.507Z,1.90
2023-03-30T18:10:38.564Z,1.90
2023-03-30T18:13:06.606Z,1.42
2023-03-30T18:15:34.154Z,1.80
2023-03-30T18:18:02.451Z,1.50
2023-03-30T18:20:36.178Z,1.40
2023-03-30T18:23:03.626Z,2.22
2023-03-30T18:25:32.878Z,1.75
2023-03-30T18:28:01.567Z,2.30
2023-03-30T18:30:33.005Z,1.70
2023-03-30T18:33:00.397Z,1.60
2023-03-30T18:35:29.575Z,1.70
2023-03-30T18:37:57.398Z,1.40
2023-03-30T18:40:39.140Z,1.50
2023-03-30T18:43:06.841Z,1.73
2023-03-30T18:45:37.780Z,1.42
2023-03-30T18:48:06.832Z,1.33
2023-03-30T18:50:38.915Z,1.50
2023-03-30T18:53:08.730Z,1.63
2023-03-30T18:55:37.886Z,1.83
2023-03-30T18:58:16.690Z,1.83
2023-03-30T19:00:44.017Z,1.23
2023-03-30T19:03:13.696Z,1.00
2023-03-30T19:05:42.179Z,1.63
2023-03-30T19:08:13.860Z,1.38
2023-03-30T19:10:42.548Z,1.20
2023-03-30T19:13:21.055Z,3.10
2023-03-30T19:15:49.649Z,1.20
2023-03-30T19:18:17.948Z,1.90
2023-03-30T19:20:46.094Z,1.70
2023-03-30T19:23:14.644Z,1.40
2023-03-30T19:25:42.932Z,1.88
2023-03-30T19:28:10.967Z,1.50
2023-03-30T19:30:39.910Z,1.45
2023-03-30T19:33:12.201Z,1.95
2023-03-30T19:35:43.954Z,1.80
2023-03-30T19:38:10.907Z,1.42
2023-03-30T19:40:38.911Z,1.00
2023-03-30T19:43:07.753Z,1.23
2023-03-30T19:45:34.969Z,1.45
2023-03-30T19:48:02.306Z,1.85
2023-03-30T19:50:30.339Z,1.38
2023-03-30T19:52:58.028Z,1.83
2023-03-30T19:55:25.139Z,1.60
2023-03-30T19:57:52.103Z,1.80
2023-03-30T20:00:20.704Z,1.30
2023-03-30T20:02:52.142Z,2.00
2023-03-30T20:05:21.366Z,1.75
2023-03-30T20:07:48.932Z,1.80
2023-03-30T20:10:19.482Z,1.50
2023-03-30T20:12:47.437Z,2.00
2023-03-30T20:15:15.073Z,1.30
2023-03-30T20:17:42.335Z,1.98
2023-03-30T20:20:12.820Z,1.38
2023-03-30T20:22:42.626Z,1.20
2023-03-30T20:25:12.787Z,1.40
2023-03-30T20:27:40.426Z,2.30
2023-03-30T20:30:08.803Z,2.45
2023-03-30T20:32:36.082Z,1.85
2023-03-30T20:35:04.163Z,2.25
2023-03-30T20:37:31.187Z,2.17
2023-03-30T20:40:05.417Z,1.80
2023-03-30T20:42:33.324Z,1.50
2023-03-30T20:45:01.312Z,1.92
2023-03-30T20:47:30.995Z,2.00
2023-03-30T20:49:59.161Z,1.58
2023-03-30T20:52:27.068Z,2.22
2023-03-30T20:54:54.623Z,2.33
2023-03-30T20:57:22.733Z,1.95
2023-03-30T20:59:50.799Z,1.50
2023-03-30T21:02:17.888Z,2.08
2023-03-30T21:04:45.279Z,1.60
2023-03-30T21:07:12.699Z,1.58
2023-03-30T21:09:40.176Z,1.38
2023-03-30T21:12:07.793Z,1.65
2023-03-30T21:14:34.776Z,1.80
2023-03-30T21:17:01.947Z,1.52
2023-03-30T21:19:28.938Z,1.90
2023-03-30T21:21:55.922Z,1.60
2023-03-30T21:24:22.934Z,1.92
2023-03-30T21:26:49.929Z,1.77
2023-03-30T21:29:16.983Z,2.13
2023-03-30T21:31:44.095Z,2.05
2023-03-30T21:34:11.842Z,2.15
2023-03-30T21:36:39.640Z,1.67
2023-03-30T21:39:07.062Z,1.52
2023-03-30T21:41:34.093Z,1.73
2023-03-30T21:44:01.514Z,1.63
2023-03-30T21:46:28.827Z,1.70
2023-03-30T21:48:55.939Z,2.00
2023-03-30T21:51:28.344Z,2.38
2023-03-30T21:53:57.928Z,2.00
2023-03-30T21:56:29.099Z,1.80
2023-03-30T21:58:56.414Z,2.10
2023-03-30T22:01:24.510Z,1.90
2023-03-30T22:03:52.573Z,1.90
2023-03-30T22:06:20.592Z,1.73
2023-03-30T22:08:48.042Z,2.05
2023-03-30T22:11:17.594Z,2.22
2023-03-30T22:13:46.858Z,2.40
2023-03-30T22:16:18.762Z,2.08
2023-03-30T22:18:46.703Z,2.20
2023-03-30T22:21:17.473Z,2.70
2023-03-30T22:23:45.478Z,2.28
2023-03-30T22:26:12.997Z,2.22
2023-03-30T22:28:40.473Z,2.20
2023-03-30T22:31:13.601Z,2.05
2023-03-30T22:33:41.190Z,2.03
2023-03-30T22:36:20.666Z,1.80
2023-03-30T22:38:49.055Z,1.85
2023-03-30T22:41:16.743Z,2.75
2023-03-30T22:43:43.889Z,2.13
2023-03-30T22:46:11.383Z,2.10
2023-03-30T22:48:41.650Z,2.22
2023-03-30T22:51:08.872Z,2.13
2023-03-30T22:53:36.180Z,2.30
2023-03-30T22:56:03.789Z,2.00
2023-03-30T22:58:31.419Z,1.77
2023-03-30T23:01:03.408Z,2.10
2023-03-30T23:03:30.897Z,2.03
2023-03-30T23:06:01.871Z,1.60
2023-03-30T23:08:29.801Z,1.90
2023-03-30T23:10:57.814Z,2.22
2023-03-30T23:13:27.443Z,2.53
2023-03-30T23:15:56.412Z,2.00
2023-03-30T23:18:24.958Z,2.00
2023-03-30T23:20:54.131Z,1.90
2023-03-30T23:23:22.229Z,2.03
2023-03-30T23:25:50.304Z,2.33
2023-03-30T23:28:19.485Z,2.03
2023-03-30T23:30:46.804Z,2.25
2023-03-30T23:33:14.057Z,1.73
2023-03-30T23:35:47.477Z,1.80
2023-03-30T23:38:14.500Z,2.80
2023-03-30T23:40:41.775Z,2.08
2023-03-30T23:43:09.238Z,2.30
2023-03-30T23:45:36.625Z,2.50
2023-03-30T23:48:05.093Z,2.13
2023-03-30T23:50:33.247Z,1.88
2023-03-30T23:53:00.615Z,2.10
2023-03-30T23:55:27.688Z,2.40
2023-03-30T23:57:54.822Z,2.08
